createdAt,value
2022-08-17T00:01:29.635Z,20.80
2022-08-17T00:03:58.877Z,20.80
2022-08-17T00:06:28.048Z,20.80
2022-08-17T00:09:02.611Z,20.80
2022-08-17T00:11:35.106Z,20.70
2022-08-17T00:14:14.315Z,20.80
2022-08-17T00:16:55.440Z,20.80
2022-08-17T00:19:24.678Z,20.80
2022-08-17T00:22:33.753Z,20.80
2022-08-17T00:24:39.584Z,20.80
2022-08-17T00:27:06.447Z,20.80
2022-08-17T00:29:33.349Z,20.90
2022-08-17T00:33:11.806Z,20.90
2022-08-17T00:34:49.012Z,20.90
2022-08-17T00:37:15.850Z,20.90
2022-08-17T00:39:42.742Z,20.90
2022-08-17T00:42:17.449Z,20.90
2022-08-17T00:44:44.680Z,20.90
2022-08-17T00:47:11.491Z,20.90
2022-08-17T00:49:38.367Z,20.90
2022-08-17T00:52:11.812Z,20.90
2022-08-17T00:54:41.830Z,20.90
2022-08-17T00:57:10.180Z,20.90
2022-08-17T00:59:42.864Z,20.90
2022-08-17T01:02:10.225Z,20.90
2022-08-17T01:04:37.075Z,20.90
2022-08-17T01:07:04.468Z,20.90
2022-08-17T01:09:31.523Z,20.90
2022-08-17T01:11:58.424Z,21.00
2022-08-17T01:14:25.557Z,21.00
2022-08-17T01:16:54.214Z,21.00
2022-08-17T01:19:32.581Z,21.00
2022-08-17T01:22:10.808Z,21.00
2022-08-17T01:24:39.597Z,21.00
2022-08-17T01:27:10.282Z,21.00
2022-08-17T01:29:38.660Z,21.00
2022-08-17T01:32:06.087Z,21.00
2022-08-17T01:34:42.352Z,21.00
2022-08-17T01:37:10.869Z,21.00
2022-08-17T01:39:39.258Z,21.00
2022-08-17T01:42:12.306Z,21.10
2022-08-17T01:44:41.097Z,21.10
2022-08-17T01:47:07.949Z,21.00
2022-08-17T01:49:34.874Z,21.00
2022-08-17T01:52:08.615Z,21.00
2022-08-17T01:54:35.743Z,21.00
2022-08-17T01:57:02.683Z,21.00
2022-08-17T01:59:29.609Z,20.90
2022-08-17T02:01:56.586Z,20.90
2022-08-17T02:04:23.458Z,20.90
2022-08-17T02:06:53.639Z,20.80
2022-08-17T02:09:25.873Z,20.90
2022-08-17T02:11:54.312Z,20.90
2022-08-17T02:14:21.202Z,20.90
2022-08-17T02:16:48.046Z,21.00
2022-08-17T02:19:15.911Z,21.00
2022-08-17T02:21:44.490Z,21.00
2022-08-17T02:24:15.104Z,21.00
2022-08-17T02:26:42.123Z,21.00
2022-08-17T02:29:09.057Z,21.00
2022-08-17T02:31:37.867Z,21.00
2022-08-17T02:34:05.409Z,20.90
2022-08-17T02:36:33.665Z,20.90
2022-08-17T02:39:02.434Z,20.90
2022-08-17T02:41:29.322Z,20.90
2022-08-17T02:43:57.181Z,20.90
2022-08-17T02:46:25.115Z,20.80
2022-08-17T02:48:52.007Z,20.70
2022-08-17T02:51:18.822Z,20.70
2022-08-17T02:53:46.817Z,20.70
2022-08-17T02:56:13.686Z,20.70
2022-08-17T02:58:40.626Z,20.70
2022-08-17T03:01:08.432Z,20.70
2022-08-17T03:03:35.812Z,20.60
2022-08-17T03:06:02.922Z,20.70
2022-08-17T03:08:30.009Z,20.70
2022-08-17T03:10:56.851Z,20.70
2022-08-17T03:13:23.680Z,20.70
2022-08-17T03:15:50.754Z,20.70
2022-08-17T03:18:25.510Z,20.70
2022-08-17T03:20:55.370Z,20.80
2022-08-17T03:23:24.051Z,20.90
2022-08-17T03:25:53.110Z,20.80
2022-08-17T03:28:20.529Z,20.80
2022-08-17T03:30:47.421Z,20.90
2022-08-17T03:33:14.471Z,20.90
2022-08-17T03:35:41.509Z,21.00
2022-08-17T03:38:10.563Z,21.00
2022-08-17T03:40:57.380Z,21.00
2022-08-17T03:43:24.506Z,21.00
2022-08-17T03:46:27.090Z,21.00
2022-08-17T03:49:15.175Z,21.00
2022-08-17T03:52:00.330Z,21.00
2022-08-17T03:54:45.651Z,21.00
2022-08-17T03:57:12.656Z,20.90
2022-08-17T03:59:39.635Z,20.80
2022-08-17T04:02:24.353Z,20.80
2022-08-17T04:04:52.300Z,20.80
2022-08-17T04:07:20.315Z,20.80
2022-08-17T04:09:47.299Z,20.80
2022-08-17T04:12:16.156Z,20.60
2022-08-17T04:14:53.619Z,20.60
2022-08-17T04:17:26.529Z,20.50
2022-08-17T04:19:53.670Z,20.40
2022-08-17T04:22:33.318Z,20.40
2022-08-17T04:25:09.718Z,20.50
2022-08-17T04:27:36.596Z,20.40
2022-08-17T04:30:04.247Z,20.50
2022-08-17T04:33:04.552Z,20.50
2022-08-17T04:35:25.739Z,20.50
2022-08-17T04:37:52.622Z,20.60
2022-08-17T04:40:38.414Z,20.60
2022-08-17T04:43:07.405Z,20.60
2022-08-17T04:45:34.491Z,20.60
2022-08-17T04:48:01.442Z,20.50
2022-08-17T04:50:28.342Z,20.50
2022-08-17T04:52:55.650Z,20.40
2022-08-17T04:55:22.658Z,20.40
2022-08-17T04:57:49.495Z,20.30
2022-08-17T05:00:16.406Z,20.20
2022-08-17T05:02:50.690Z,20.20
2022-08-17T05:05:27.058Z,20.20
2022-08-17T05:07:58.722Z,20.10
2022-08-17T05:10:27.698Z,20.10
2022-08-17T05:13:01.358Z,20.20
2022-08-17T05:15:28.621Z,20.20
2022-08-17T05:18:00.126Z,20.30
2022-08-17T05:20:27.108Z,20.20
2022-08-17T05:22:55.813Z,20.20
2022-08-17T05:25:32.796Z,20.20
2022-08-17T05:28:03.273Z,20.20
2022-08-17T05:30:30.158Z,20.20
2022-08-17T05:33:05.340Z,20.20
2022-08-17T05:35:34.479Z,20.20
2022-08-17T05:38:01.719Z,20.20
2022-08-17T05:40:32.907Z,20.10
2022-08-17T05:43:09.356Z,20.00
2022-08-17T05:45:55.873Z,20.10
2022-08-17T05:48:36.768Z,20.10
2022-08-17T05:51:32.458Z,20.00
2022-08-17T05:54:08.192Z,20.10
2022-08-17T05:56:39.441Z,20.10
2022-08-17T05:59:22.580Z,20.10
2022-08-17T06:02:01.882Z,20.20
2022-08-17T06:04:59.618Z,20.20
2022-08-17T06:07:39.616Z,20.30
2022-08-17T06:10:18.583Z,20.30
2022-08-17T06:13:10.112Z,20.30
2022-08-17T06:15:49.491Z,20.30
2022-08-17T06:18:19.133Z,20.40
2022-08-17T06:20:50.951Z,20.30
2022-08-17T06:23:24.861Z,20.40
2022-08-17T06:25:53.971Z,20.40
2022-08-17T06:28:49.364Z,20.40
2022-08-17T06:31:29.268Z,20.40
2022-08-17T06:33:57.071Z,20.40
2022-08-17T06:36:28.765Z,20.40
2022-08-17T06:39:24.354Z,20.40
2022-08-17T06:42:01.756Z,20.50
2022-08-17T06:44:43.583Z,20.40
2022-08-17T06:47:28.558Z,20.50
2022-08-17T06:50:07.952Z,20.50
2022-08-17T06:52:52.466Z,20.50
2022-08-17T06:55:37.895Z,20.50
2022-08-17T06:58:09.234Z,20.40
2022-08-17T07:00:44.176Z,20.40
2022-08-17T07:03:38.818Z,20.40
2022-08-17T07:06:17.178Z,20.40
2022-08-17T07:08:52.887Z,20.40
2022-08-17T07:11:27.275Z,20.40
2022-08-17T07:14:15.219Z,20.50
2022-08-17T07:16:51.686Z,20.50
2022-08-17T07:19:20.458Z,20.60
2022-08-17T07:22:06.074Z,20.60
2022-08-17T07:24:41.532Z,20.60
2022-08-17T07:27:16.176Z,20.60
2022-08-17T07:29:52.963Z,20.70
2022-08-17T07:32:24.097Z,20.70
2022-08-17T07:35:10.689Z,20.70
2022-08-17T07:37:54.181Z,20.70
2022-08-17T07:40:22.769Z,20.80
2022-08-17T07:43:06.833Z,20.80
2022-08-17T07:45:53.183Z,20.70
2022-08-17T07:48:22.508Z,20.70
2022-08-17T07:50:50.827Z,20.70
2022-08-17T07:53:23.199Z,20.70
2022-08-17T07:55:50.585Z,20.80
2022-08-17T07:58:19.338Z,20.70
2022-08-17T08:00:46.422Z,20.80
2022-08-17T08:03:15.230Z,20.70
2022-08-17T08:05:56.951Z,20.70
2022-08-17T08:08:42.456Z,20.70
2022-08-17T08:11:15.453Z,20.70
2022-08-17T08:13:45.543Z,20.70
2022-08-17T08:16:13.310Z,20.80
2022-08-17T08:18:55.419Z,20.80
2022-08-17T08:21:42.239Z,20.80
2022-08-17T08:24:40.818Z,20.90
2022-08-17T08:27:19.843Z,20.90
2022-08-17T08:30:04.837Z,20.90
2022-08-17T08:32:50.670Z,20.90
2022-08-17T08:35:53.623Z,20.90
2022-08-17T08:38:30.973Z,21.00
2022-08-17T08:40:57.817Z,21.00
2022-08-17T08:43:24.630Z,21.10
2022-08-17T08:46:10.126Z,21.10
2022-08-17T08:48:57.948Z,21.20
2022-08-17T08:51:44.016Z,21.10
2022-08-17T08:54:40.115Z,21.20
2022-08-17T08:57:26.753Z,21.30
2022-08-17T09:00:05.682Z,21.40
2022-08-17T09:02:50.898Z,21.40
2022-08-17T09:05:48.607Z,21.50
2022-08-17T09:08:29.972Z,21.50
2022-08-17T09:12:02.543Z,21.50
2022-08-17T09:14:47.193Z,21.50
2022-08-17T09:17:16.429Z,21.60
2022-08-17T09:19:57.197Z,21.70
2022-08-17T09:22:39.439Z,21.70
2022-08-17T09:25:08.212Z,21.80
2022-08-17T09:27:53.189Z,21.80
2022-08-17T09:30:21.261Z,21.90
2022-08-17T09:32:55.324Z,21.90
2022-08-17T09:35:25.208Z,21.80
2022-08-17T09:38:22.755Z,21.70
2022-08-17T09:41:04.553Z,21.50
2022-08-17T09:43:55.792Z,21.30
2022-08-17T09:46:49.401Z,21.20
2022-08-17T09:49:32.150Z,21.30
2022-08-17T09:52:02.869Z,21.40
2022-08-17T09:54:40.194Z,21.40
2022-08-17T09:57:30.256Z,21.40
2022-08-17T10:00:16.803Z,21.40
2022-08-17T10:03:04.778Z,21.40
2022-08-17T10:05:46.528Z,21.40
2022-08-17T10:08:28.799Z,21.40
2022-08-17T10:11:05.516Z,21.40
2022-08-17T10:13:36.399Z,21.40
2022-08-17T10:16:07.815Z,21.40
2022-08-17T10:18:44.436Z,21.50
2022-08-17T10:21:31.279Z,21.50
2022-08-17T10:24:36.184Z,21.50
2022-08-17T10:27:04.218Z,21.50
2022-08-17T10:29:47.278Z,21.50
2022-08-17T10:32:37.406Z,21.50
2022-08-17T10:35:13.275Z,21.60
2022-08-17T10:37:52.774Z,21.70
2022-08-17T10:40:37.318Z,21.80
2022-08-17T10:43:32.934Z,21.80
2022-08-17T10:46:30.227Z,21.90
2022-08-17T10:49:18.124Z,21.90
2022-08-17T10:51:49.175Z,21.80
2022-08-17T10:54:25.142Z,21.90
2022-08-17T10:56:53.550Z,21.90
2022-08-17T10:59:51.179Z,21.90
2022-08-17T11:02:31.604Z,21.90
2022-08-17T11:05:15.939Z,21.90
2022-08-17T11:07:54.956Z,21.90
2022-08-17T11:10:52.117Z,21.90
2022-08-17T11:13:29.938Z,22.00
2022-08-17T11:16:08.298Z,21.90
2022-08-17T11:19:12.891Z,21.90
2022-08-17T11:22:11.770Z,22.00
2022-08-17T11:24:48.185Z,22.00
2022-08-17T11:27:31.435Z,22.00
2022-08-17T11:30:11.241Z,21.90
2022-08-17T11:32:52.012Z,22.00
2022-08-17T11:35:21.405Z,21.90
2022-08-17T11:38:13.999Z,21.90
2022-08-17T11:41:13.568Z,22.00
2022-08-17T11:44:02.158Z,22.20
2022-08-17T11:46:56.711Z,22.40
2022-08-17T11:49:54.743Z,22.50
2022-08-17T11:52:42.321Z,22.40
2022-08-17T11:55:40.555Z,22.50
2022-08-17T11:58:44.537Z,22.30
2022-08-17T12:01:31.659Z,22.30
2022-08-17T12:04:26.635Z,22.10
2022-08-17T12:07:07.193Z,22.10
2022-08-17T12:09:34.540Z,22.10
2022-08-17T12:12:14.559Z,22.00
2022-08-17T12:15:11.155Z,22.10
2022-08-17T12:17:40.467Z,22.10
2022-08-17T12:20:28.570Z,22.00
2022-08-17T12:23:04.930Z,22.00
2022-08-17T12:25:42.098Z,22.00
2022-08-17T12:28:29.562Z,21.90
2022-08-17T12:31:19.222Z,22.00
2022-08-17T12:33:46.410Z,22.00
2022-08-17T12:36:17.419Z,22.00
2022-08-17T12:38:51.043Z,22.00
2022-08-17T12:41:34.201Z,21.80
2022-08-17T12:44:18.257Z,21.80
2022-08-17T12:46:46.569Z,21.60
2022-08-17T12:49:22.996Z,21.60
2022-08-17T12:51:50.295Z,21.70
2022-08-17T12:54:33.707Z,21.70
2022-08-17T12:57:05.605Z,21.80
2022-08-17T12:59:33.248Z,21.90
2022-08-17T13:02:00.296Z,21.90
2022-08-17T13:04:29.687Z,21.90
2022-08-17T13:06:59.682Z,21.90
2022-08-17T13:09:33.578Z,21.90
2022-08-17T13:12:03.286Z,22.00
2022-08-17T13:14:33.277Z,22.00
2022-08-17T13:17:01.714Z,22.00
2022-08-17T13:19:41.031Z,22.00
2022-08-17T13:22:11.416Z,21.90
2022-08-17T13:24:39.283Z,21.90
2022-08-17T13:27:08.502Z,21.90
2022-08-17T13:29:45.804Z,21.90
2022-08-17T13:32:31.160Z,21.80
2022-08-17T13:35:12.325Z,21.80
2022-08-17T13:37:55.329Z,21.70
2022-08-17T13:40:22.144Z,21.70
2022-08-17T13:42:52.644Z,21.60
2022-08-17T13:45:36.003Z,21.50
2022-08-17T13:48:17.062Z,21.40
2022-08-17T13:50:54.467Z,21.40
2022-08-17T13:53:24.069Z,21.40
2022-08-17T13:55:52.982Z,21.40
2022-08-17T13:58:27.287Z,21.40
2022-08-17T14:00:54.427Z,21.40
2022-08-17T14:03:21.339Z,21.30
2022-08-17T14:05:48.654Z,21.30
2022-08-17T14:08:16.115Z,21.20
2022-08-17T14:10:45.038Z,21.20
2022-08-17T14:13:13.365Z,21.20
2022-08-17T14:15:55.316Z,21.20
2022-08-17T14:18:50.535Z,21.30
2022-08-17T14:21:10.690Z,21.20
2022-08-17T14:23:37.676Z,21.10
2022-08-17T14:26:04.942Z,21.10
2022-08-17T14:28:32.863Z,21.20
2022-08-17T14:31:03.207Z,21.10
2022-08-17T14:33:30.087Z,21.00
2022-08-17T14:35:57.685Z,21.00
2022-08-17T14:38:24.830Z,21.00
2022-08-17T14:40:51.759Z,21.10
2022-08-17T14:43:18.766Z,21.00
2022-08-17T14:45:47.057Z,21.10
2022-08-17T14:48:13.966Z,21.10
2022-08-17T14:50:41.872Z,21.20
2022-08-17T14:53:10.048Z,21.30
2022-08-17T14:55:39.882Z,21.50
2022-08-17T14:58:07.625Z,21.50
2022-08-17T15:00:34.493Z,21.70
2022-08-17T15:03:01.539Z,21.80
2022-08-17T15:05:33.758Z,21.90
2022-08-17T15:08:01.368Z,21.90
2022-08-17T15:10:29.163Z,22.00
2022-08-17T15:12:56.323Z,22.20
2022-08-17T15:15:23.499Z,22.40
2022-08-17T15:17:51.398Z,22.40
2022-08-17T15:20:20.846Z,22.70
2022-08-17T15:22:49.829Z,23.10
2022-08-17T15:25:17.728Z,23.20
2022-08-17T15:27:44.628Z,23.70
2022-08-17T15:30:12.047Z,23.90
2022-08-17T15:32:41.085Z,24.30
2022-08-17T15:35:17.907Z,24.60
2022-08-17T15:37:44.910Z,24.90
2022-08-17T15:40:12.564Z,25.20
2022-08-17T15:42:40.419Z,25.30
2022-08-17T15:45:10.504Z,25.30
2022-08-17T15:47:37.609Z,25.30
2022-08-17T15:50:06.429Z,25.30
2022-08-17T15:52:38.026Z,25.40
2022-08-17T15:55:05.675Z,25.30
2022-08-17T15:57:33.382Z,25.10
2022-08-17T16:00:00.269Z,25.10
2022-08-17T16:03:46.006Z,25.00
2022-08-17T16:05:24.015Z,24.80
2022-08-17T16:07:51.322Z,24.60
2022-08-17T16:10:19.178Z,24.60
2022-08-17T16:12:47.248Z,24.50
2022-08-17T16:15:14.426Z,24.50
2022-08-17T16:17:44.374Z,24.50
2022-08-17T16:20:20.011Z,24.40
2022-08-17T16:22:48.369Z,24.20
2022-08-17T16:25:19.000Z,24.10
2022-08-17T16:27:46.675Z,24.10
2022-08-17T16:30:17.343Z,23.80
2022-08-17T16:32:44.811Z,23.60
2022-08-17T16:35:12.162Z,23.60
2022-08-17T16:37:40.381Z,23.50
2022-08-17T16:40:13.051Z,23.50
2022-08-17T16:42:40.159Z,23.40
2022-08-17T16:45:13.423Z,23.20
2022-08-17T16:47:41.385Z,23.00
2022-08-17T16:50:09.552Z,22.90
2022-08-17T16:52:36.756Z,22.80
2022-08-17T16:55:04.111Z,22.70
2022-08-17T16:57:31.037Z,22.60
2022-08-17T16:59:57.930Z,22.60
2022-08-17T17:02:30.530Z,22.50
2022-08-17T17:05:19.285Z,22.50
2022-08-17T17:07:55.490Z,22.50
2022-08-17T17:10:40.930Z,22.50
2022-08-17T17:13:09.961Z,22.40
2022-08-17T17:16:01.339Z,22.40
2022-08-17T17:19:04.735Z,22.30
2022-08-17T17:21:47.345Z,22.20
2022-08-17T17:24:41.891Z,22.20
2022-08-17T17:27:32.547Z,22.20
2022-08-17T17:30:15.687Z,22.20
2022-08-17T17:32:46.667Z,22.20
2022-08-17T17:35:33.090Z,22.10
2022-08-17T17:38:04.156Z,22.10
2022-08-17T17:40:47.816Z,22.10
2022-08-17T17:43:37.631Z,22.00
2022-08-17T17:46:27.018Z,22.00
2022-08-17T17:48:55.251Z,22.10
2022-08-17T17:51:54.692Z,22.10
2022-08-17T17:54:24.383Z,22.00
2022-08-17T17:56:58.435Z,21.90
2022-08-17T17:59:44.071Z,21.90
2022-08-17T18:02:45.057Z,21.90
2022-08-17T18:05:37.227Z,21.90
2022-08-17T18:08:35.212Z,21.90
2022-08-17T18:11:11.503Z,21.90
2022-08-17T18:13:44.000Z,21.80
2022-08-17T18:16:13.255Z,21.90
2022-08-17T18:18:44.539Z,21.90
2022-08-17T18:21:19.318Z,21.80
2022-08-17T18:23:56.667Z,21.80
2022-08-17T18:26:47.191Z,21.80
2022-08-17T18:29:37.566Z,21.70
2022-08-17T18:32:23.087Z,21.70
2022-08-17T18:34:52.858Z,21.70
2022-08-17T18:37:38.369Z,21.60
2022-08-17T18:40:17.341Z,21.60
2022-08-17T18:43:03.351Z,21.60
2022-08-17T18:45:47.451Z,21.60
2022-08-17T18:48:33.490Z,21.60
2022-08-17T18:51:20.223Z,21.60
2022-08-17T18:54:25.143Z,21.50
2022-08-17T18:56:55.147Z,21.50
2022-08-17T18:59:42.190Z,21.40
2022-08-17T19:02:20.690Z,21.40
2022-08-17T19:05:09.113Z,21.40
2022-08-17T19:07:41.570Z,21.40
2022-08-17T19:10:20.400Z,21.30
2022-08-17T19:13:12.929Z,21.30
2022-08-17T19:16:11.682Z,21.20
2022-08-17T19:18:58.926Z,21.20
2022-08-17T19:21:41.383Z,21.10
2022-08-17T19:24:12.376Z,21.10
2022-08-17T19:26:54.600Z,21.20
2022-08-17T19:29:41.009Z,21.10
2022-08-17T19:32:08.953Z,21.10
2022-08-17T19:34:36.579Z,21.10
2022-08-17T19:37:23.448Z,21.10
2022-08-17T19:39:56.152Z,21.00
2022-08-17T19:42:31.141Z,21.00
2022-08-17T19:45:06.549Z,21.00
2022-08-17T19:48:04.598Z,20.90
2022-08-17T19:50:43.951Z,20.90
2022-08-17T19:53:47.403Z,20.90
2022-08-17T19:56:31.663Z,20.80
2022-08-17T19:59:01.466Z,20.80
2022-08-17T20:02:03.018Z,20.80
2022-08-17T20:04:32.370Z,20.80
2022-08-17T20:07:23.370Z,20.80
2022-08-17T20:09:54.722Z,20.70
2022-08-17T20:12:33.386Z,20.70
2022-08-17T20:15:30.445Z,20.70
2022-08-17T20:17:58.813Z,20.70
2022-08-17T20:21:07.159Z,20.60
2022-08-17T20:23:51.000Z,20.70
2022-08-17T20:26:20.923Z,21.20
2022-08-17T20:29:09.174Z,20.60
2022-08-17T20:31:59.242Z,20.60
2022-08-17T20:34:37.162Z,20.60
2022-08-17T20:37:14.591Z,20.60
2022-08-17T20:40:09.138Z,20.60
2022-08-17T20:42:36.325Z,20.60
2022-08-17T20:45:26.441Z,20.60
2022-08-17T20:48:20.051Z,20.70
2022-08-17T20:50:47.115Z,20.70
2022-08-17T20:53:36.647Z,20.70
2022-08-17T20:56:03.585Z,20.60
2022-08-17T20:58:31.195Z,20.70
2022-08-17T21:00:59.038Z,20.70
2022-08-17T21:03:51.186Z,20.70
2022-08-17T21:06:20.495Z,20.60
2022-08-17T21:08:54.640Z,20.60
2022-08-17T21:12:03.134Z,20.50
2022-08-17T21:14:36.569Z,20.60
2022-08-17T21:17:35.707Z,20.60
2022-08-17T21:20:22.575Z,20.60
2022-08-17T21:23:20.474Z,20.60
2022-08-17T21:26:09.237Z,20.60
2022-08-17T21:29:30.084Z,20.60
2022-08-17T21:32:03.744Z,20.60
2022-08-17T21:34:33.234Z,20.60
2022-08-17T21:37:18.661Z,20.60
2022-08-17T21:39:51.881Z,20.60
2022-08-17T21:42:29.100Z,20.50
2022-08-17T21:44:59.855Z,20.60
2022-08-17T21:47:28.254Z,20.60
2022-08-17T21:49:55.768Z,20.50
2022-08-17T21:52:23.915Z,20.50
2022-08-17T21:54:55.202Z,20.50
2022-08-17T21:57:27.571Z,20.50
2022-08-17T21:59:59.832Z,20.50
2022-08-17T22:02:35.187Z,20.50
2022-08-17T22:05:07.071Z,20.50
2022-08-17T22:07:42.905Z,20.50
2022-08-17T22:10:30.583Z,20.50
2022-08-17T22:13:04.080Z,20.50
2022-08-17T22:15:31.096Z,20.50
2022-08-17T22:18:01.651Z,20.40
2022-08-17T22:20:28.511Z,20.50
2022-08-17T22:23:13.794Z,20.50
2022-08-17T22:25:56.190Z,20.40
2022-08-17T22:28:42.572Z,20.40
2022-08-17T22:31:10.638Z,20.40
2022-08-17T22:33:41.608Z,20.40
2022-08-17T22:36:22.099Z,20.40
2022-08-17T22:38:49.581Z,20.50
2022-08-17T22:41:25.479Z,20.50
2022-08-17T22:43:52.711Z,20.40
2022-08-17T22:46:21.290Z,20.40
2022-08-17T22:48:50.711Z,20.40
2022-08-17T22:51:22.284Z,20.40
2022-08-17T22:54:11.571Z,20.40
2022-08-17T22:56:56.775Z,20.40
2022-08-17T22:59:43.818Z,20.40
2022-08-17T23:02:29.996Z,20.40
2022-08-17T23:05:13.025Z,20.40
2022-08-17T23:07:40.559Z,20.40
2022-08-17T23:10:09.703Z,20.40
2022-08-17T23:12:39.651Z,20.40
2022-08-17T23:15:14.459Z,20.40
2022-08-17T23:17:42.058Z,20.40
2022-08-17T23:20:12.099Z,20.40
2022-08-17T23:22:51.397Z,20.40
2022-08-17T23:25:26.455Z,20.40
2022-08-17T23:27:53.610Z,20.30
2022-08-17T23:30:20.697Z,20.30
2022-08-17T23:32:53.705Z,20.30
2022-08-17T23:35:21.017Z,20.30
2022-08-17T23:38:10.687Z,20.20
2022-08-17T23:40:39.595Z,20.20
2022-08-17T23:43:16.642Z,20.20
2022-08-17T23:45:50.716Z,20.10
2022-08-17T23:48:35.115Z,20.10
2022-08-17T23:51:04.003Z,20.10
2022-08-17T23:53:32.714Z,20.10
2022-08-17T23:56:09.296Z,20.10
2022-08-17T23:58:42.319Z,20.10
